Time;durP1;ratioP1;P1;durP2;ratioP2;P2;SDS_P1;SDS_P2;PMS_P1;PMS_P2;Temp;Humidity;BMP_temperature;BMP_pressure;BME280_temperature;BME280_humidity;BME280_pressure;Samples;Min_cycle;Max_cycle;Signal;HPM_P1;HPM_P2
2021/05/14 07:32:36;;;;;;;13.55;2.65;;;12.20;99.90;;;;;;6192306;22;20041;-83
2021/05/14 07:35:04;;;;;;;11.00;2.10;;;12.20;99.90;;;;;;6216036;23;20013;-80
2021/05/14 07:37:32;;;;;;;11.93;2.67;;;12.30;99.90;;;;;;6214093;23;20040;-81
2021/05/14 07:39:59;;;;;;;13.73;2.58;;;12.40;99.90;;;;;;6214384;23;20028;-82
2021/05/14 07:42:26;;;;;;;12.48;2.30;;;12.60;99.90;;;;;;6215201;23;20013;-84
2021/05/14 07:44:52;;;;;;;12.02;2.28;;;12.80;99.90;;;;;;6216043;23;20020;-82
2021/05/14 07:47:19;;;;;;;14.55;2.70;;;12.90;99.90;;;;;;6215233;23;20020;-84
2021/05/14 07:49:46;;;;;;;11.75;2.22;;;13.00;99.90;;;;;;6213937;23;20092;-83
2021/05/14 07:52:13;;;;;;;10.18;2.10;;;12.90;99.90;;;;;;6213623;23;20017;-82
2021/05/14 07:54:41;;;;;;;10.18;2.03;;;13.00;99.90;;;;;;6215691;23;20347;-80
2021/05/14 07:57:08;;;;;;;14.23;2.60;;;13.00;99.90;;;;;;6215323;23;20021;-80
2021/05/14 07:59:35;;;;;;;6.05;1.75;;;12.80;99.90;;;;;;6215907;23;20020;-81
2021/05/14 08:02:02;;;;;;;13.52;2.00;;;12.90;99.90;;;;;;6214128;23;20092;-83
2021/05/14 08:04:29;;;;;;;9.02;2.40;;;12.80;99.90;;;;;;6214889;23;20013;-80
2021/05/14 08:06:56;;;;;;;9.35;2.10;;;12.80;99.90;;;;;;6215335;23;20013;-83
2021/05/14 08:09:24;;;;;;;9.93;2.20;;;12.80;99.90;;;;;;6213432;23;20079;-82
2021/05/14 08:11:51;;;;;;;9.77;2.53;;;12.90;99.90;;;;;;6213079;23;20082;-83
2021/05/14 08:14:19;;;;;;;13.77;2.30;;;12.90;99.90;;;;;;6213668;23;20024;-83
2021/05/14 08:16:46;;;;;;;8.98;2.00;;;13.10;99.90;;;;;;6215509;23;20044;-81
2021/05/14 08:19:14;;;;;;;10.27;1.73;;;13.40;99.90;;;;;;6212989;23;20017;-83
2021/05/14 08:21:45;;;;;;;9.48;2.20;;;13.60;99.90;;;;;;6213569;23;20017;-83
2021/05/14 08:24:13;;;;;;;14.05;2.47;;;13.70;99.90;;;;;;6212894;23;20016;-81
2021/05/14 08:26:40;;;;;;;7.90;2.65;;;13.70;99.90;;;;;;6215073;23;20027;-80
2021/05/14 08:29:08;;;;;;;11.30;2.50;;;13.60;99.90;;;;;;6214974;23;20016;-82
2021/05/14 08:31:39;;;;;;;8.40;1.83;;;13.70;99.90;;;;;;6213403;23;20020;-81
2021/05/14 08:34:10;;;;;;;8.23;2.05;;;13.60;99.90;;;;;;6214974;23;20012;-83
2021/05/14 08:36:37;;;;;;;12.98;2.30;;;13.50;99.90;;;;;;6215492;23;20067;-81
2021/05/14 08:39:05;;;;;;;7.78;1.98;;;13.40;99.90;;;;;;6214831;23;20013;-83
2021/05/14 08:41:34;;;;;;;10.80;2.33;;;13.40;99.90;;;;;;6213856;23;20016;-83
2021/05/14 08:44:02;;;;;;;8.88;2.40;;;13.40;99.90;;;;;;6215366;23;20012;-82
2021/05/14 08:46:30;;;;;;;9.88;2.30;;;13.30;99.90;;;;;;6214938;23;20020;-83
2021/05/14 08:49:11;;;;;;;11.35;2.10;;;13.30;99.90;;;;;;6213252;23;20013;-82
2021/05/14 08:51:38;;;;;;;8.63;2.25;;;13.50;99.90;;;;;;6213727;23;20025;-81
2021/05/14 08:54:06;;;;;;;12.98;2.78;;;13.70;99.90;;;;;;6213276;23;20024;-82
2021/05/14 08:56:34;;;;;;;11.38;2.13;;;13.90;99.90;;;;;;6215324;23;20028;-83
2021/05/14 08:59:01;;;;;;;9.88;2.05;;;13.90;99.90;;;;;;6215238;23;20017;-81
2021/05/14 09:01:28;;;;;;;12.07;2.30;;;13.90;99.90;;;;;;6214349;23;20079;-83
2021/05/14 09:03:56;;;;;;;11.27;2.22;;;13.90;99.90;;;;;;6213652;23;20031;-83
2021/05/14 09:06:40;;;;;;;9.25;2.33;;;13.70;99.90;;;;;;6213152;23;20027;-82
2021/05/14 09:09:08;;;;;;;10.63;2.63;;;13.50;99.90;;;;;;6213227;23;20016;-83
2021/05/14 09:11:45;;;;;;;12.73;2.33;;;13.50;99.90;;;;;;6213614;23;20081;-82
2021/05/14 09:14:47;;;;;;;16.00;2.45;;;13.70;99.90;;;;;;6213117;23;20017;-82
2021/05/14 09:17:15;;;;;;;12.05;2.10;;;13.90;99.90;;;;;;6212739;23;20392;-82
2021/05/14 09:19:44;;;;;;;8.60;2.15;;;14.20;99.90;;;;;;6213001;23;20020;-83
2021/05/14 09:22:15;;;;;;;10.13;2.47;;;14.20;99.90;;;;;;6212260;23;20020;-82
2021/05/14 09:24:46;;;;;;;12.90;2.17;;;14.10;99.90;;;;;;6214881;23;20013;-81
2021/05/14 09:27:18;;;;;;;7.55;1.70;;;14.00;99.90;;;;;;6214053;23;20020;-83
2021/05/14 09:29:46;;;;;;;6.75;2.00;;;14.00;99.90;;;;;;6214723;23;20016;-83
2021/05/14 09:32:28;;;;;;;9.73;2.30;;;14.10;99.90;;;;;;6213777;23;20036;-80
2021/05/14 09:34:58;;;;;;;9.93;2.67;;;14.20;99.90;;;;;;6214978;23;20023;-80
2021/05/14 09:37:27;;;;;;;9.25;2.70;;;14.30;99.90;;;;;;6212885;23;20017;-82
2021/05/14 09:40:20;;;;;;;7.70;2.10;;;14.30;99.90;;;;;;6214898;23;20025;-82
2021/05/14 09:42:49;;;;;;;5.63;1.90;;;14.50;99.90;;;;;;6204664;23;20012;-82
2021/05/14 09:45:19;;;;;;;10.88;2.15;;;14.60;99.90;;;;;;6214210;23;20448;-81
2021/05/14 09:48:14;;;;;;;9.13;2.03;;;14.70;99.90;;;;;;6214646;23;20383;-82
2021/05/14 09:50:45;;;;;;;12.32;2.40;;;14.60;99.90;;;;;;6212666;23;20021;-82
2021/05/14 09:53:19;;;;;;;12.63;2.60;;;14.70;99.90;;;;;;6214375;23;20079;-80
2021/05/14 09:55:50;;;;;;;8.80;2.08;;;14.80;99.90;;;;;;6214756;23;20012;-81
2021/05/14 09:58:21;;;;;;;6.20;2.13;;;14.70;99.90;;;;;;6212739;23;20019;-82
2021/05/14 10:00:48;;;;;;;10.35;2.47;;;14.80;99.90;;;;;;6213107;23;20017;-82
2021/05/14 10:03:17;;;;;;;12.18;2.30;;;14.90;99.90;;;;;;6214092;23;20020;-81
2021/05/14 10:05:45;;;;;;;10.98;2.25;;;14.90;99.90;;;;;;6214511;23;20020;-82
2021/05/14 10:08:15;;;;;;;8.98;2.22;;;15.00;99.90;;;;;;6214094;23;20012;-81
2021/05/14 10:10:42;;;;;;;7.95;1.88;;;15.00;99.90;;;;;;6214379;23;20047;-82
2021/05/14 10:13:10;;;;;;;10.82;2.20;;;15.20;99.90;;;;;;6212274;23;20070;-82
2021/05/14 10:15:38;;;;;;;9.52;2.35;;;15.20;99.90;;;;;;6214352;23;20448;-82
2021/05/14 10:18:13;;;;;;;8.33;1.90;;;15.20;99.90;;;;;;6213712;23;20545;-82
2021/05/14 10:20:40;;;;;;;7.45;1.95;;;15.20;99.90;;;;;;6212860;23;20271;-81
2021/05/14 10:23:08;;;;;;;7.70;2.03;;;15.20;99.90;;;;;;6212422;23;20017;-83
2021/05/14 10:25:37;;;;;;;10.25;2.00;;;15.10;99.90;;;;;;6212857;23;20067;-83
2021/05/14 10:28:07;;;;;;;7.22;1.60;;;15.20;99.90;;;;;;6212189;23;20067;-84
2021/05/14 10:30:35;;;;;;;9.13;1.92;;;15.30;99.90;;;;;;6212744;23;20343;-83
2021/05/14 10:33:03;;;;;;;12.90;2.00;;;15.50;99.90;;;;;;6212439;23;20012;-82
2021/05/14 10:35:33;;;;;;;8.60;1.70;;;15.50;99.90;;;;;;6212088;23;20471;-82
2021/05/14 10:38:01;;;;;;;8.35;1.95;;;15.50;99.90;;;;;;6214351;23;20542;-83
2021/05/14 10:40:28;;;;;;;8.05;1.90;;;15.40;99.90;;;;;;6213866;23;20387;-81
2021/05/14 10:43:00;;;;;;;7.53;1.70;;;15.40;99.90;;;;;;6214343;23;20309;-82
2021/05/14 10:45:32;;;;;;;12.40;2.63;;;15.30;99.90;;;;;;6212236;23;20025;-82
2021/05/14 10:48:00;;;;;;;10.65;1.95;;;15.40;99.90;;;;;;6214315;23;20075;-82
2021/05/14 10:50:32;;;;;;;9.85;2.15;;;15.50;99.90;;;;;;6212240;23;20021;-83
2021/05/14 10:53:26;;;;;;;13.25;2.90;;;15.60;99.90;;;;;;6214444;23;20081;-82
2021/05/14 10:55:55;;;;;;;9.10;2.08;;;15.50;99.90;;;;;;6213712;23;20008;-82
2021/05/14 10:58:40;;;;;;;11.60;1.90;;;15.40;99.90;;;;;;6213731;23;20082;-82
2021/05/14 11:01:25;;;;;;;8.13;2.00;;;15.30;99.90;;;;;;6213563;23;20538;-82
2021/05/14 11:03:52;;;;;;;10.43;2.75;;;15.10;99.90;;;;;;6212572;23;20070;-82
2021/05/14 11:06:19;;;;;;;6.80;2.00;;;15.00;99.90;;;;;;6212073;23;20017;-82
2021/05/14 11:08:59;;;;;;;11.02;2.00;;;15.00;99.90;;;;;;6214164;23;20017;-83
2021/05/14 11:12:10;;;;;;;15.32;2.53;;;15.00;99.90;;;;;;6212694;23;20047;-82
2021/05/14 11:14:48;;;;;;;8.95;2.38;;;14.80;99.90;;;;;;6212207;23;20021;-82
2021/05/14 11:17:17;;;;;;;9.50;2.17;;;14.80;99.90;;;;;;6212294;23;20012;-81
2021/05/14 11:19:52;;;;;;;9.68;2.10;;;14.80;99.90;;;;;;6214113;23;20499;-82
2021/05/14 11:22:38;;;;;;;7.95;2.03;;;14.80;99.90;;;;;;6212353;23;20063;-83
2021/05/14 11:25:17;;;;;;;10.80;2.22;;;14.80;99.90;;;;;;6213520;23;20078;-83
2021/05/14 11:27:51;;;;;;;13.10;2.55;;;14.80;99.90;;;;;;6212237;23;20344;-82
2021/05/14 11:30:19;;;;;;;10.85;2.13;;;14.80;99.90;;;;;;6213642;23;20017;-80
2021/05/14 11:32:47;;;;;;;8.35;1.92;;;14.80;99.90;;;;;;6212325;23;20039;-83
2021/05/14 11:35:21;;;;;;;8.52;2.03;;;14.80;99.90;;;;;;6213880;23;20016;-80
2021/05/14 11:37:52;;;;;;;8.63;2.15;;;14.90;99.90;;;;;;6212169;23;20332;-81
2021/05/14 11:40:30;;;;;;;8.65;2.10;;;15.00;99.90;;;;;;6213460;23;20510;-80
2021/05/14 11:43:12;;;;;;;12.03;2.00;;;14.90;99.90;;;;;;6214216;23;20013;-82
2021/05/14 11:45:41;;;;;;;8.20;1.67;;;15.00;99.90;;;;;;6212653;23;20034;-81
2021/05/14 11:48:12;;;;;;;7.78;1.58;;;15.10;99.90;;;;;;6215277;23;20485;-82
2021/05/14 11:50:47;;;;;;;5.82;1.50;;;15.10;99.90;;;;;;6214212;23;20464;-81
2021/05/14 11:53:15;;;;;;;8.70;2.00;;;15.20;99.90;;;;;;6215247;23;20380;-80
2021/05/14 11:55:45;;;;;;;5.90;1.30;;;15.30;99.90;;;;;;6214108;23;20017;-82
2021/05/14 11:58:12;;;;;;;4.55;1.50;;;15.40;99.90;;;;;;6215365;23;20475;-80
2021/05/14 12:00:43;;;;;;;6.10;1.40;;;15.50;99.90;;;;;;6214063;23;20013;-81
2021/05/14 12:03:16;;;;;;;7.70;1.83;;;15.50;99.90;;;;;;6213479;23;20013;-82
2021/05/14 12:05:45;;;;;;;6.82;1.45;;;15.50;99.90;;;;;;6214066;23;20021;-82
2021/05/14 12:08:23;;;;;;;9.60;2.40;;;15.60;99.90;;;;;;6213688;23;20017;-79
2021/05/14 12:11:02;;;;;;;4.50;1.40;;;15.60;99.90;;;;;;6214227;23;20070;-81
2021/05/14 12:13:34;;;;;;;7.93;1.77;;;15.70;99.90;;;;;;6215434;23;20075;-81
2021/05/14 12:16:03;;;;;;;10.25;1.70;;;15.80;99.90;;;;;;6215438;23;20017;-81
2021/05/14 12:18:32;;;;;;;7.95;1.50;;;15.90;99.90;;;;;;6214949;23;20352;-81
2021/05/14 12:21:00;;;;;;;7.13;1.30;;;16.00;99.90;;;;;;6214224;23;20345;-82
2021/05/14 12:23:29;;;;;;;7.32;1.27;;;16.00;99.90;;;;;;6213838;23;20523;-81
2021/05/14 12:26:00;;;;;;;9.55;1.55;;;16.00;99.90;;;;;;6215525;23;20075;-81
2021/05/14 12:28:36;;;;;;;6.32;1.55;;;16.00;99.90;;;;;;6213500;23;20075;-81
2021/05/14 12:31:08;;;;;;;6.53;1.40;;;16.00;99.90;;;;;;6213205;23;20020;-81
2021/05/14 12:33:49;;;;;;;7.65;1.52;;;16.00;99.90;;;;;;6213696;23;20020;-82
2021/05/14 12:36:28;;;;;;;6.90;1.33;;;16.10;99.90;;;;;;6213611;23;20047;-80
2021/05/14 12:39:09;;;;;;;6.13;1.55;;;16.20;99.90;;;;;;6213786;23;20020;-82
2021/05/14 12:41:38;;;;;;;7.07;1.70;;;16.20;99.90;;;;;;6213445;23;20023;-81
2021/05/14 12:44:18;;;;;;;7.45;1.55;;;16.40;99.90;;;;;;6213634;23;20021;-83
2021/05/14 12:47:07;;;;;;;4.30;1.25;;;16.40;99.90;;;;;;6213850;23;20075;-82
2021/05/14 12:49:45;;;;;;;7.43;1.58;;;16.50;99.90;;;;;;6214936;23;20012;-81
2021/05/14 12:52:13;;;;;;;6.57;1.40;;;16.40;99.90;;;;;;6214648;23;20017;-80
2021/05/14 12:54:52;;;;;;;6.85;1.05;;;16.50;99.90;;;;;;6215137;23;20020;-81
2021/05/14 12:57:50;;;;;;;6.38;1.23;;;16.60;99.90;;;;;;6212838;23;20116;-82
2021/05/14 13:00:26;;;;;;;5.53;1.33;;;16.60;99.90;;;;;;6214496;23;20075;-79
2021/05/14 13:02:58;;;;;;;7.47;1.30;;;16.60;99.90;;;;;;6213553;23;20020;-82
2021/05/14 13:05:43;;;;;;;4.88;1.35;;;16.50;99.90;;;;;;6213299;23;20024;-80
2021/05/14 13:08:25;;;;;;;7.30;1.50;;;16.30;99.90;;;;;;6213116;23;20406;-81
2021/05/14 13:10:56;;;;;;;7.05;1.20;;;16.20;99.90;;;;;;6213600;23;20021;-81
2021/05/14 13:13:26;;;;;;;5.03;1.25;;;16.00;99.90;;;;;;6214561;23;20017;-81
2021/05/14 13:15:57;;;;;;;4.82;1.05;;;16.00;99.90;;;;;;6215086;23;20339;-80
2021/05/14 13:18:26;;;;;;;6.40;1.30;;;16.00;99.90;;;;;;6213180;23;20025;-81
2021/05/14 13:20:55;;;;;;;6.32;1.15;;;16.00;99.90;;;;;;6213245;23;20020;-80
2021/05/14 13:23:29;;;;;;;7.80;1.30;;;15.90;99.90;;;;;;6213412;23;20036;-81
2021/05/14 13:25:56;;;;;;;5.00;1.00;;;15.80;99.90;;;;;;6214949;23;20017;-80
2021/05/14 13:28:23;;;;;;;5.85;1.23;;;15.70;99.90;;;;;;6212607;23;20059;-82
2021/05/14 13:30:51;;;;;;;5.45;1.35;;;15.70;99.90;;;;;;6212566;23;20017;-82
2021/05/14 13:33:18;;;;;;;8.93;1.52;;;15.60;99.90;;;;;;6212963;23;20017;-82
2021/05/14 13:35:45;;;;;;;8.15;1.60;;;15.70;99.90;;;;;;6214554;23;20012;-81
2021/05/14 13:38:11;;;;;;;6.60;1.17;;;15.70;99.90;;;;;;6212807;23;20391;-82
2021/05/14 13:40:38;;;;;;;6.82;1.30;;;15.70;99.90;;;;;;6214797;23;20016;-82
2021/05/14 13:43:05;;;;;;;6.10;1.20;;;15.70;99.90;;;;;;6212470;23;20024;-80
2021/05/14 13:45:32;;;;;;;6.57;1.25;;;15.70;99.90;;;;;;6213032;23;20017;-80
2021/05/14 13:48:03;;;;;;;6.30;1.23;;;15.60;99.90;;;;;;6213052;23;20385;-81
2021/05/14 13:50:30;;;;;;;8.93;1.63;;;15.40;99.90;;;;;;6212837;23;20017;-81
2021/05/14 13:52:57;;;;;;;8.60;1.48;;;15.30;99.90;;;;;;6214745;23;20020;-82
2021/05/14 13:55:25;;;;;;;5.68;0.82;;;15.30;99.90;;;;;;6214159;23;20067;-81
2021/05/14 13:57:52;;;;;;;8.05;1.20;;;15.30;99.90;;;;;;6212892;23;20044;-80
2021/05/14 14:00:20;;;;;;;3.80;1.15;;;15.30;99.90;;;;;;6212702;23;20016;-81
2021/05/14 14:02:47;;;;;;;6.20;1.20;;;15.30;99.90;;;;;;6214614;23;20017;-82
2021/05/14 14:05:14;;;;;;;8.82;1.50;;;15.30;99.90;;;;;;6214012;23;20078;-82
2021/05/14 14:07:41;;;;;;;4.15;1.13;;;15.30;99.90;;;;;;6212759;23;20534;-81
2021/05/14 14:10:11;;;;;;;6.97;1.35;;;15.30;99.90;;;;;;6213525;23;20039;-82
2021/05/14 14:12:38;;;;;;;7.03;1.13;;;15.30;99.90;;;;;;6214668;23;20395;-82
2021/05/14 14:15:09;;;;;;;4.47;1.07;;;15.30;99.90;;;;;;6213882;23;20012;-82
2021/05/14 14:17:37;;;;;;;6.05;1.23;;;15.20;99.90;;;;;;6212957;23;20025;-82
2021/05/14 14:20:06;;;;;;;8.25;1.38;;;15.10;99.90;;;;;;6214578;23;20444;-82
2021/05/14 14:22:33;;;;;;;3.50;0.90;;;15.10;99.90;;;;;;6212758;23;20416;-81
2021/05/14 14:25:00;;;;;;;8.00;1.58;;;15.10;99.90;;;;;;6214313;23;20063;-82
2021/05/14 14:27:27;;;;;;;5.55;1.30;;;15.00;99.90;;;;;;6212275;23;20016;-81
2021/05/14 14:29:54;;;;;;;8.43;1.50;;;15.00;99.90;;;;;;6214613;23;20016;-79
2021/05/14 14:32:22;;;;;;;9.05;1.52;;;14.90;99.90;;;;;;6213610;23;20032;-80
2021/05/14 14:34:49;;;;;;;5.78;1.20;;;14.80;99.90;;;;;;6212786;23;20016;-82
2021/05/14 14:37:32;;;;;;;6.40;1.42;;;14.80;99.90;;;;;;6212884;23;20317;-82
2021/05/14 14:40:00;;;;;;;7.65;1.20;;;14.80;99.90;;;;;;6212748;23;20027;-80
2021/05/14 14:42:26;;;;;;;4.28;1.17;;;14.70;99.90;;;;;;6213990;23;20020;-81
2021/05/14 14:44:53;;;;;;;7.28;1.25;;;14.60;99.90;;;;;;6214242;23;20020;-81
2021/05/14 14:47:20;;;;;;;10.18;1.30;;;14.60;99.90;;;;;;6212087;23;20075;-82
2021/05/14 14:49:47;;;;;;;4.05;1.10;;;14.60;99.90;;;;;;6213968;23;20044;-81
2021/05/14 14:52:16;;;;;;;7.55;1.48;;;14.60;99.90;;;;;;6213682;23;20013;-80
2021/05/14 14:54:43;;;;;;;6.90;1.33;;;14.60;99.90;;;;;;6214258;23;20017;-82
2021/05/14 14:57:10;;;;;;;6.88;1.27;;;14.60;99.90;;;;;;6212211;23;20012;-82
2021/05/14 14:59:37;;;;;;;4.68;1.35;;;14.60;99.90;;;;;;6212728;23;20017;-81
2021/05/14 15:02:04;;;;;;;3.63;1.00;;;14.60;99.90;;;;;;6214380;23;20012;-81
2021/05/14 15:04:31;;;;;;;5.70;1.42;;;14.60;99.90;;;;;;6213622;23;20021;-82
2021/05/14 15:06:59;;;;;;;8.63;1.25;;;14.70;99.90;;;;;;6212973;23;20040;-82
2021/05/14 15:09:27;;;;;;;4.53;1.00;;;14.70;99.90;;;;;;6211993;23;20020;-80
2021/05/14 15:11:54;;;;;;;7.78;1.45;;;14.60;99.90;;;;;;6212862;23;20393;-82
2021/05/14 15:14:22;;;;;;;7.05;1.58;;;14.60;99.90;;;;;;6213997;23;20025;-82
2021/05/14 15:16:49;;;;;;;6.47;1.08;;;14.60;99.90;;;;;;6214356;23;20024;-82
2021/05/14 15:19:16;;;;;;;7.40;1.55;;;14.60;99.90;;;;;;6213725;23;20017;-81
2021/05/14 15:21:43;;;;;;;5.40;1.20;;;14.60;99.90;;;;;;6213857;23;20021;-82
2021/05/14 15:24:10;;;;;;;8.05;1.30;;;14.70;99.90;;;;;;6215582;23;20013;-82
2021/05/14 15:26:38;;;;;;;4.53;1.00;;;14.60;99.90;;;;;;6214559;23;20016;-81
2021/05/14 15:29:07;;;;;;;11.13;1.73;;;14.60;99.90;;;;;;6215647;23;20046;-83
2021/05/14 15:31:33;;;;;;;4.40;1.25;;;14.50;99.90;;;;;;6216005;23;20075;-82
2021/05/14 15:34:01;;;;;;;8.18;1.40;;;14.50;99.90;;;;;;6214589;23;20016;-82
2021/05/14 15:36:28;;;;;;;11.00;1.75;;;14.40;99.90;;;;;;6215488;23;20016;-80
2021/05/14 15:38:55;;;;;;;7.30;1.83;;;14.40;99.90;;;;;;6214370;23;20013;-81
2021/05/14 15:41:22;;;;;;;7.65;1.33;;;14.50;99.90;;;;;;6215567;23;20016;-82
2021/05/14 15:43:50;;;;;;;8.05;1.40;;;14.40;99.90;;;;;;6214481;23;20094;-81
2021/05/14 15:46:17;;;;;;;9.50;1.90;;;14.40;99.90;;;;;;6215325;23;20020;-81
2021/05/14 15:48:45;;;;;;;7.28;2.13;;;14.30;99.90;;;;;;6214358;23;20023;-81
2021/05/14 15:51:13;;;;;;;7.50;1.83;;;14.30;99.90;;;;;;6215376;23;20318;-82
2021/05/14 15:53:40;;;;;;;6.65;1.63;;;14.30;99.90;;;;;;6215877;23;20078;-81
2021/05/14 15:56:07;;;;;;;9.10;1.85;;;14.30;99.90;;;;;;6215589;23;20067;-82
2021/05/14 15:58:34;;;;;;;8.73;1.60;;;14.20;99.90;;;;;;6215784;23;20017;-81
2021/05/14 16:01:01;;;;;;;11.95;1.92;;;14.10;99.90;;;;;;6214159;23;20517;-82
2021/05/14 16:03:31;;;;;;;8.50;2.08;;;14.10;99.90;;;;;;6215115;23;20491;-80
2021/05/14 16:05:59;;;;;;;8.00;2.22;;;14.10;99.90;;;;;;6215410;23;20460;-81
2021/05/14 16:08:26;;;;;;;10.75;1.67;;;14.10;99.90;;;;;;6215271;23;20021;-82
2021/05/14 16:10:53;;;;;;;10.27;1.90;;;14.00;99.90;;;;;;6215739;23;20016;-82
2021/05/14 16:13:20;;;;;;;6.50;1.50;;;13.90;99.90;;;;;;6213678;23;20400;-81
2021/05/14 16:15:47;;;;;;;9.18;1.73;;;13.90;99.90;;;;;;6213896;23;20013;-81
2021/05/14 16:18:19;;;;;;;7.20;1.63;;;13.80;99.90;;;;;;6215239;23;20051;-79
2021/05/14 16:20:53;;;;;;;6.50;1.63;;;13.80;99.90;;;;;;6215735;23;20016;-81
2021/05/14 16:23:21;;;;;;;11.05;2.22;;;13.70;99.90;;;;;;6213729;23;20021;-82
2021/05/14 16:25:52;;;;;;;11.30;2.10;;;13.60;99.90;;;;;;6213791;23;20062;-82
2021/05/14 16:28:19;;;;;;;9.80;1.60;;;13.70;99.90;;;;;;6213366;23;20024;-82
2021/05/14 16:30:47;;;;;;;10.05;1.83;;;13.70;99.90;;;;;;6213621;23;20016;-82
2021/05/14 16:33:14;;;;;;;7.88;1.80;;;13.70;99.90;;;;;;6214542;23;20066;-81
2021/05/14 16:35:42;;;;;;;10.18;1.90;;;13.60;99.90;;;;;;6213872;23;20016;-80
2021/05/14 16:38:09;;;;;;;10.52;2.08;;;13.60;99.90;;;;;;6215077;23;20472;-82
2021/05/14 16:40:36;;;;;;;7.38;1.70;;;13.60;99.90;;;;;;6213329;23;20021;-80
2021/05/14 16:43:03;;;;;;;9.95;2.13;;;13.60;99.90;;;;;;6215144;23;20016;-82
2021/05/14 16:45:30;;;;;;;11.50;2.33;;;13.60;99.90;;;;;;6213546;23;20020;-82
2021/05/14 16:47:57;;;;;;;7.85;1.77;;;13.60;99.90;;;;;;6215333;23;20021;-82
2021/05/14 16:50:24;;;;;;;8.43;1.80;;;13.60;99.90;;;;;;6214958;23;20016;-80
2021/05/14 16:52:52;;;;;;;8.65;1.80;;;13.60;99.90;;;;;;6215237;23;20471;-82
2021/05/14 16:55:20;;;;;;;6.93;1.70;;;13.60;99.90;;;;;;6212942;23;20379;-82
2021/05/14 16:57:48;;;;;;;7.72;1.80;;;13.60;99.90;;;;;;6213491;23;20016;-80
2021/05/14 17:00:16;;;;;;;9.82;1.65;;;13.50;99.90;;;;;;6212862;23;20044;-79
2021/05/14 17:02:51;;;;;;;9.10;1.98;;;13.60;99.90;;;;;;6215027;23;20020;-81
2021/05/14 17:05:17;;;;;;;11.77;2.17;;;13.50;99.90;;;;;;6214269;23;20020;-82
2021/05/14 17:07:45;;;;;;;10.45;2.00;;;13.50;99.90;;;;;;6212848;23;21039;-82
2021/05/14 17:10:12;;;;;;;8.80;1.77;;;13.50;99.90;;;;;;6212614;23;20017;-80
2021/05/14 17:12:40;;;;;;;8.83;2.17;;;13.50;99.90;;;;;;6214752;23;20358;-81
2021/05/14 17:15:08;;;;;;;11.68;1.83;;;13.50;99.90;;;;;;6212512;23;20044;-82
2021/05/14 17:17:35;;;;;;;9.48;1.98;;;13.40;99.90;;;;;;6214682;23;20017;-82
2021/05/14 17:20:04;;;;;;;10.02;1.98;;;13.40;99.90;;;;;;6212845;23;20020;-82
2021/05/14 17:22:32;;;;;;;9.90;1.75;;;13.40;99.90;;;;;;6212539;23;20059;-81
2021/05/14 17:24:59;;;;;;;8.25;1.52;;;13.40;99.90;;;;;;6213682;23;20021;-82
2021/05/14 17:27:26;;;;;;;14.63;1.92;;;13.40;99.90;;;;;;6212467;23;20017;-82
2021/05/14 17:29:53;;;;;;;10.55;1.95;;;13.30;99.90;;;;;;6213062;23;20087;-82
2021/05/14 17:32:20;;;;;;;10.88;2.20;;;13.30;99.90;;;;;;6211873;23;20039;-82
2021/05/14 17:34:47;;;;;;;12.27;2.05;;;13.30;99.90;;;;;;6212907;23;20023;-82
2021/05/14 17:37:14;;;;;;;9.15;1.58;;;13.20;99.90;;;;;;6212714;23;20091;-82
2021/05/14 17:39:41;;;;;;;10.60;2.20;;;13.20;99.90;;;;;;6213002;23;20067;-82
2021/05/14 17:42:09;;;;;;;9.07;2.10;;;13.20;99.90;;;;;;6212932;23;20040;-82
2021/05/14 17:44:36;;;;;;;8.18;1.70;;;13.10;99.90;;;;;;6214522;23;20034;-82
2021/05/14 17:47:03;;;;;;;9.32;2.15;;;13.00;99.90;;;;;;6213357;23;20013;-82
2021/05/14 17:49:37;;;;;;;7.00;2.10;;;12.80;99.90;;;;;;6212710;23;20044;-83
2021/05/14 17:52:04;;;;;;;7.72;1.70;;;12.70;99.90;;;;;;6213021;23;20338;-83
2021/05/14 17:54:31;;;;;;;7.65;1.80;;;12.60;99.90;;;;;;6212814;23;20016;-83
2021/05/14 17:56:58;;;;;;;6.97;1.92;;;12.50;99.90;;;;;;6213344;23;20070;-83
2021/05/14 17:59:26;;;;;;;10.60;2.20;;;12.40;99.90;;;;;;6214325;23;20099;-83
2021/05/14 18:01:53;;;;;;;8.43;1.75;;;12.30;99.90;;;;;;6213133;23;20028;-83
2021/05/14 18:04:20;;;;;;;8.82;2.08;;;12.30;99.90;;;;;;6212568;23;20013;-82
2021/05/14 18:06:47;;;;;;;10.13;2.72;;;12.20;99.90;;;;;;6214694;23;20036;-84
2021/05/14 18:09:13;;;;;;;7.57;2.17;;;12.20;99.90;;;;;;6213855;23;20035;-84
2021/05/14 18:11:40;;;;;;;10.15;2.42;;;12.10;99.90;;;;;;6214498;23;20017;-84
2021/05/14 18:14:08;;;;;;;11.90;2.67;;;12.10;99.90;;;;;;6213927;23;20071;-84
2021/05/14 18:16:35;;;;;;;9.65;2.60;;;12.00;99.90;;;;;;6212907;23;20383;-86
2021/05/14 18:19:33;;;;;;;8.45;1.88;;;12.00;99.90;;;;;;6212938;23;20095;-84
2021/05/14 18:21:52;;;;;;;6.47;2.30;;;11.90;99.90;;;;;;6213706;23;20012;-84
2021/05/14 18:24:19;;;;;;;8.00;2.17;;;11.90;99.90;;;;;;6214103;23;20460;-84
2021/05/14 18:26:46;;;;;;;6.55;1.80;;;11.90;99.90;;;;;;6214605;23;20013;-85
2021/05/14 18:29:13;;;;;;;7.00;1.70;;;11.90;99.90;;;;;;6213842;23;20013;-84
2021/05/14 18:31:40;;;;;;;6.47;2.25;;;11.80;99.90;;;;;;6212783;23;20013;-85
2021/05/14 18:34:09;;;;;;;6.78;1.83;;;11.80;99.90;;;;;;6212372;23;20016;-84
2021/05/14 18:36:37;;;;;;;4.55;1.77;;;11.70;99.90;;;;;;6212888;23;20036;-85
2021/05/14 18:39:05;;;;;;;6.03;1.60;;;11.70;99.90;;;;;;6213105;23;20091;-86
2021/05/14 18:41:32;;;;;;;5.67;1.90;;;11.70;99.90;;;;;;6212894;23;20510;-85
2021/05/14 18:44:02;;;;;;;8.82;1.92;;;11.60;99.90;;;;;;6214698;23;20334;-86
2021/05/14 18:46:30;;;;;;;6.97;1.92;;;11.60;99.90;;;;;;6212473;23;20479;-85
2021/05/14 18:48:58;;;;;;;8.32;1.80;;;11.60;99.90;;;;;;6213042;23;20067;-85
2021/05/14 18:51:25;;;;;;;15.70;3.00;;;11.60;99.90;;;;;;6212664;23;20059;-84
2021/05/14 18:53:53;;;;;;;8.65;2.15;;;11.60;99.90;;;;;;6214348;23;20071;-85
2021/05/14 18:56:22;;;;;;;6.90;1.67;;;11.60;99.90;;;;;;6213666;23;20108;-83
2021/05/14 18:58:49;;;;;;;6.43;2.00;;;11.60;99.90;;;;;;6214767;23;20020;-84
2021/05/14 19:01:16;;;;;;;7.18;1.77;;;11.50;99.90;;;;;;6215913;23;20017;-85
2021/05/14 19:03:43;;;;;;;6.05;2.00;;;11.50;99.90;;;;;;6214671;23;20019;-86
2021/05/14 19:06:10;;;;;;;7.63;1.98;;;11.40;99.90;;;;;;6215740;23;20043;-86
2021/05/14 19:08:37;;;;;;;9.52;1.90;;;11.40;99.90;;;;;;6214477;23;20472;-84
2021/05/14 19:11:04;;;;;;;7.55;1.58;;;11.40;99.90;;;;;;6216008;23;20017;-84
2021/05/14 19:13:31;;;;;;;10.32;1.92;;;11.30;99.90;;;;;;6216084;23;20017;-85
2021/05/14 19:15:57;;;;;;;6.38;1.55;;;11.40;99.90;;;;;;6216486;23;20017;-87
2021/05/14 19:18:24;;;;;;;8.07;1.70;;;11.30;99.90;;;;;;6214776;23;20024;-84
2021/05/14 19:20:52;;;;;;;7.53;1.80;;;11.30;99.90;;;;;;6215895;23;20448;-83
2021/05/14 19:50:11;;;;;;;6.22;1.50;;;11.10;99.90;;;;;;6215102;23;20027;-83
2021/05/14 19:52:38;;;;;;;6.47;1.40;;;11.10;99.90;;;;;;6214291;23;20017;-82
2021/05/14 19:55:07;;;;;;;6.47;1.67;;;11.10;99.90;;;;;;6213716;23;20071;-83
2021/05/14 19:57:34;;;;;;;;;;;11.10;99.90;;;;;;6214646;23;20048;-83
2021/05/14 20:00:04;;;;;;;10.35;1.85;;;11.10;99.90;;;;;;6214214;23;20348;-83
2021/05/14 20:02:31;;;;;;;6.57;1.17;;;11.10;99.90;;;;;;6215805;23;20009;-82
2021/05/14 20:04:58;;;;;;;6.50;1.10;;;11.10;99.90;;;;;;6214045;23;20467;-84
2021/05/14 20:07:25;;;;;;;6.70;1.60;;;11.10;99.90;;;;;;6215009;23;20071;-81
2021/05/14 20:09:52;;;;;;;6.80;1.25;;;11.10;99.90;;;;;;6214014;23;20013;-83
2021/05/14 20:12:18;;;;;;;4.93;1.40;;;11.00;99.90;;;;;;6213637;23;20016;-82
2021/05/14 20:14:45;;;;;;;4.00;1.17;;;11.00;99.90;;;;;;6215492;23;20024;-82
2021/05/14 20:17:12;;;;;;;9.32;1.63;;;11.00;99.90;;;;;;6215081;23;20376;-82
2021/05/14 20:19:39;;;;;;;4.97;1.15;;;11.00;99.90;;;;;;6213801;23;20468;-83
2021/05/14 20:22:06;;;;;;;6.57;1.40;;;11.10;99.90;;;;;;6215040;23;20020;-84
2021/05/14 20:24:33;;;;;;;3.63;1.30;;;11.10;99.90;;;;;;6213962;23;20024;-84
2021/05/14 20:27:19;;;;;;;3.63;1.10;;;11.10;99.90;;;;;;6213702;23;20075;-82
2021/05/14 20:29:46;;;;;;;4.88;1.25;;;11.10;99.90;;;;;;6215614;23;20383;-83
2021/05/14 20:32:13;;;;;;;6.35;1.35;;;11.10;99.90;;;;;;6214553;23;20017;-84
2021/05/14 20:34:41;;;;;;;3.97;1.02;;;11.10;99.90;;;;;;6213667;23;20079;-82
2021/05/14 20:37:11;;;;;;;5.35;1.10;;;11.10;99.90;;;;;;6213470;23;20012;-84
2021/05/14 20:39:43;;;;;;;6.68;1.20;;;11.10;99.90;;;;;;6213911;23;20467;-84
2021/05/14 20:42:11;;;;;;;8.20;1.50;;;11.10;99.90;;;;;;6213355;23;20035;-83
2021/05/14 20:44:39;;;;;;;6.25;1.38;;;11.10;99.90;;;;;;6215635;23;20062;-83
2021/05/14 20:47:12;;;;;;;7.32;1.40;;;11.10;99.90;;;;;;6213490;23;20012;-83
2021/05/14 20:49:40;;;;;;;4.60;1.10;;;11.10;99.90;;;;;;6213736;23;20012;-83
2021/05/14 20:52:07;;;;;;;5.78;1.35;;;11.20;99.90;;;;;;6214862;23;20325;-84
2021/05/14 20:54:54;;;;;;;5.13;1.38;;;11.20;99.90;;;;;;6213979;23;20036;-84
2021/05/14 20:57:26;;;;;;;4.55;1.13;;;11.20;99.90;;;;;;6213425;23;20016;-84